Stillwell, Georgia
Current Conditions -  °F | °C
As of 5:15 AM on Sunday 25 Jan 2015 (Local Time) from KJYL Reporting Station
Clear Clear  
Wind Chill: 35°   Ceiling: Unl
Heat Index: 35°   Visibility: 10mi
Dew Point: 32°   Wind: 0mph
Humidity: 87%   Direction: NA
Pressure: 29.99"   Gusts: NA
Location:  32.4496°N, 81.3721°W
Report Text: KJYL 251015Z AUTO 00000KT 10SM CLR 02/00 A2999 RMK AO2 T00190000
Loading
Personal Weather Stations






























Interactive Weather Map New forecast layout! Learn more

10-Day Weather Forecast

Advertisements
Track Severe Weather on mobile